createdAt,value
2023-12-11T00:00:57.925Z,67.55
2023-12-11T00:05:59.985Z,64.60
2023-12-11T00:11:02.103Z,62.75
2023-12-11T00:16:04.644Z,55.85
2023-12-11T00:21:07.314Z,54.78
2023-12-11T00:26:10.044Z,79.32
2023-12-11T00:31:13.554Z,72.07
2023-12-11T00:36:15.845Z,84.28
2023-12-11T00:41:18.025Z,65.55
2023-12-11T00:46:24.087Z,62.55
2023-12-11T00:51:26.215Z,58.28
2023-12-11T00:56:29.403Z,68.20
2023-12-11T01:01:31.590Z,64.15
2023-12-11T01:06:33.782Z,69.65
2023-12-11T01:11:35.889Z,50.30
2023-12-11T01:16:37.944Z,70.13
2023-12-11T01:21:40.028Z,71.13
2023-12-11T01:26:42.268Z,75.57
2023-12-11T01:31:44.434Z,77.07
2023-12-11T01:36:46.566Z,63.42
2023-12-11T01:41:48.617Z,64.90
2023-12-11T01:46:52.545Z,70.25
2023-12-11T01:51:54.654Z,62.95
2023-12-11T01:56:56.741Z,69.50
2023-12-11T02:01:59.069Z,74.28
2023-12-11T02:07:01.171Z,57.25
2023-12-11T02:12:03.826Z,65.50
2023-12-11T02:17:10.049Z,69.28
2023-12-11T02:22:12.954Z,73.40
2023-12-11T02:27:15.300Z,67.03
2023-12-11T02:32:17.946Z,67.28
2023-12-11T02:37:20.273Z,85.80
2023-12-11T02:42:22.433Z,70.20
2023-12-11T02:47:24.608Z,66.15
2023-12-11T02:52:26.659Z,65.78
2023-12-11T02:57:28.947Z,51.35
2023-12-11T03:02:31.198Z,69.97
2023-12-11T03:07:33.363Z,51.90
2023-12-11T03:12:35.990Z,55.95
2023-12-11T03:17:38.284Z,68.85
2023-12-11T03:22:40.725Z,58.05
2023-12-11T03:27:42.854Z,48.15
2023-12-11T03:32:44.994Z,62.80
2023-12-11T03:37:47.079Z,71.95
2023-12-11T03:42:49.244Z,62.38
2023-12-11T03:47:51.351Z,76.25
2023-12-11T03:52:53.502Z,74.63
2023-12-11T03:57:55.999Z,63.95
2023-12-11T04:03:01.224Z,70.88
2023-12-11T04:08:03.256Z,77.47
2023-12-11T04:13:05.333Z,79.57
2023-12-11T04:18:07.467Z,63.58
2023-12-11T04:23:09.623Z,73.57
2023-12-11T04:28:11.745Z,80.90
2023-12-11T04:33:13.925Z,82.03
2023-12-11T04:38:15.999Z,73.25
2023-12-11T04:43:18.074Z,73.57
2023-12-11T04:48:20.247Z,67.25
2023-12-11T04:53:22.400Z,82.15
2023-12-11T04:58:24.488Z,81.05
2023-12-11T05:03:29.097Z,73.35
2023-12-11T05:08:31.109Z,71.18
2023-12-11T05:13:33.305Z,71.40
2023-12-11T05:18:35.496Z,81.13
2023-12-11T05:23:38.326Z,62.53
2023-12-11T05:28:40.332Z,82.63
2023-12-11T05:33:42.695Z,79.60
2023-12-11T05:38:47.115Z,89.18
2023-12-11T05:43:49.352Z,74.93
2023-12-11T05:48:51.498Z,64.30
2023-12-11T05:53:53.646Z,59.00
2023-12-11T05:58:55.879Z,91.65
2023-12-11T06:03:58.104Z,81.40
2023-12-11T06:09:00.296Z,68.28
2023-12-11T06:14:02.293Z,73.25
2023-12-11T06:19:04.604Z,79.65
2023-12-11T06:24:07.800Z,77.00
2023-12-11T06:29:10.998Z,81.00
2023-12-11T06:34:13.080Z,68.35
2023-12-11T06:39:15.180Z,87.70
2023-12-11T06:44:17.136Z,86.68
2023-12-11T06:49:19.393Z,67.35
2023-12-11T06:54:22.620Z,74.25
2023-12-11T06:59:24.570Z,84.90
2023-12-11T07:04:27.912Z,78.13
2023-12-11T07:09:32.432Z,98.20
2023-12-11T07:14:34.462Z,102.32
2023-12-11T07:19:36.658Z,84.55
2023-12-11T07:24:38.785Z,86.10
2023-12-11T07:29:40.998Z,77.28
2023-12-11T07:34:44.472Z,69.70
2023-12-11T07:39:46.615Z,83.70
2023-12-11T07:44:48.797Z,89.68
2023-12-11T07:49:52.467Z,78.50
2023-12-11T07:54:55.074Z,87.30
2023-12-11T07:59:57.225Z,65.10
2023-12-11T08:04:59.389Z,70.38
2023-12-11T08:10:01.731Z,62.10
2023-12-11T08:15:04.788Z,60.25
2023-12-11T08:20:11.341Z,62.33
2023-12-11T08:25:15.893Z,63.40
2023-12-11T08:30:18.269Z,70.60
2023-12-11T08:35:20.252Z,74.47
2023-12-11T08:40:22.431Z,55.78
2023-12-11T08:45:24.581Z,72.55
2023-12-11T08:50:26.836Z,67.60
2023-12-11T08:55:32.283Z,49.97
2023-12-11T09:00:34.504Z,69.72
2023-12-11T09:05:36.644Z,55.78
2023-12-11T09:10:38.762Z,48.08
2023-12-11T09:15:40.796Z,54.83
2023-12-11T09:20:43.010Z,46.42
2023-12-11T09:25:45.241Z,48.65
2023-12-11T09:30:49.717Z,44.53
2023-12-11T09:35:52.037Z,58.47
2023-12-11T09:40:54.822Z,54.85
2023-12-11T09:45:57.187Z,46.28
2023-12-11T09:50:59.410Z,38.72
2023-12-11T09:56:01.645Z,65.30
2023-12-11T10:01:04.600Z,36.30
2023-12-11T10:06:07.152Z,28.60
2023-12-11T10:11:11.018Z,23.17
2023-12-11T10:16:32.329Z,18.42
2023-12-11T10:21:40.406Z,27.70
2023-12-11T10:26:47.094Z,16.50
2023-12-11T10:31:49.642Z,14.57
2023-12-11T10:36:53.338Z,14.82
2023-12-11T10:41:55.554Z,20.00
2023-12-11T10:46:57.791Z,12.13
2023-12-11T10:51:59.909Z,13.23
2023-12-11T10:57:02.795Z,9.85
2023-12-11T11:02:05.196Z,17.58
2023-12-11T11:07:36.362Z,12.85
2023-12-11T11:13:00.566Z,12.20
2023-12-11T11:18:11.076Z,19.17
2023-12-11T11:23:16.428Z,10.23
2023-12-11T11:28:39.357Z,9.95
2023-12-11T11:33:51.000Z,9.45
2023-12-11T11:38:58.380Z,10.02
2023-12-11T11:44:07.928Z,5.47
2023-12-11T11:49:10.005Z,6.82
2023-12-11T11:54:12.173Z,9.25
2023-12-11T11:59:14.322Z,8.98
2023-12-11T12:04:35.962Z,8.23
2023-12-11T12:09:38.960Z,2.60
2023-12-11T12:14:40.944Z,5.88
2023-12-11T12:19:43.026Z,5.78
2023-12-11T12:24:50.097Z,7.53
2023-12-11T12:29:53.172Z,9.63
2023-12-11T12:34:56.614Z,3.28
2023-12-11T12:39:58.818Z,9.07
2023-12-11T12:45:01.494Z,4.60
2023-12-11T12:50:08.047Z,6.45
2023-12-11T12:55:10.222Z,3.65
2023-12-11T13:00:21.729Z,9.25
2023-12-11T13:05:40.374Z,8.93
2023-12-11T13:10:58.226Z,11.40
2023-12-11T13:16:00.303Z,10.90
2023-12-11T13:21:02.407Z,18.10
2023-12-11T13:26:04.656Z,9.30
2023-12-11T13:31:07.167Z,19.25
2023-12-11T13:36:09.950Z,11.90
2023-12-11T13:41:15.339Z,22.88
2023-12-11T13:46:17.291Z,15.75
2023-12-11T13:51:19.381Z,15.13
2023-12-11T13:56:22.926Z,21.63
2023-12-11T14:01:25.037Z,10.48
2023-12-11T14:06:27.111Z,24.73
2023-12-11T14:11:29.337Z,16.67
2023-12-11T14:16:33.199Z,25.52
2023-12-11T14:21:35.198Z,29.02
2023-12-11T14:26:47.023Z,20.67
2023-12-11T14:31:50.895Z,24.45
2023-12-11T14:36:53.001Z,25.45
2023-12-11T14:41:55.044Z,30.10
2023-12-11T14:46:57.144Z,28.80
2023-12-11T14:51:59.417Z,36.40
2023-12-11T14:57:01.578Z,25.05
2023-12-11T15:02:03.910Z,33.92
2023-12-11T15:07:06.437Z,34.75
2023-12-11T15:12:09.179Z,26.50
2023-12-11T15:17:12.309Z,36.75
2023-12-11T15:22:14.748Z,30.05
2023-12-11T15:27:16.962Z,30.50
2023-12-11T15:32:20.964Z,41.35
2023-12-11T15:37:23.481Z,33.65
2023-12-11T15:42:25.546Z,42.05
2023-12-11T15:47:27.700Z,22.88
2023-12-11T15:52:30.164Z,38.72
2023-12-11T15:57:32.851Z,32.60
2023-12-11T16:02:36.876Z,38.60
2023-12-11T16:07:39.324Z,36.33
2023-12-11T16:12:41.353Z,29.33
2023-12-11T16:17:44.896Z,31.67
2023-12-11T16:22:47.000Z,36.30
2023-12-11T16:27:49.113Z,51.53
2023-12-11T16:32:51.202Z,31.63
2023-12-11T16:37:53.393Z,29.75
2023-12-11T16:42:55.578Z,36.20
2023-12-11T16:47:57.863Z,44.70
2023-12-11T16:53:00.090Z,32.25
2023-12-11T16:58:02.311Z,31.85
2023-12-11T17:03:04.461Z,42.40
2023-12-11T17:08:06.606Z,34.92
2023-12-11T17:13:09.186Z,31.38
2023-12-11T17:18:13.156Z,33.60
2023-12-11T17:23:15.210Z,39.42
2023-12-11T17:28:17.309Z,47.95
2023-12-11T17:33:19.959Z,45.90
2023-12-11T17:38:22.043Z,41.15
2023-12-11T17:43:24.137Z,23.80
2023-12-11T17:48:28.991Z,41.72
2023-12-11T17:53:31.293Z,36.10
2023-12-11T17:58:33.351Z,25.17
2023-12-11T18:03:36.088Z,20.60
2023-12-11T18:08:39.053Z,36.10
2023-12-11T18:13:41.210Z,22.17
2023-12-11T18:18:43.590Z,36.42
2023-12-11T18:23:45.672Z,27.77
2023-12-11T18:28:47.734Z,26.08
2023-12-11T18:33:49.874Z,48.22
2023-12-11T18:38:53.576Z,37.42
2023-12-11T18:43:55.651Z,28.25
2023-12-11T18:49:00.699Z,24.40
2023-12-11T18:54:03.090Z,20.45
2023-12-11T18:59:05.093Z,20.60
2023-12-11T19:04:07.404Z,11.85
2023-12-11T19:09:09.885Z,21.75
2023-12-11T19:14:12.414Z,22.85
2023-12-11T19:19:14.526Z,11.80
2023-12-11T19:24:16.784Z,19.38
2023-12-11T19:29:18.945Z,13.27
2023-12-11T19:34:21.015Z,16.85
2023-12-11T19:39:23.028Z,12.63
2023-12-11T19:44:27.478Z,8.20
2023-12-11T19:49:30.050Z,7.22
2023-12-11T19:54:32.162Z,8.88
2023-12-11T19:59:34.185Z,12.10
2023-12-11T20:04:37.515Z,9.50
2023-12-11T20:09:43.603Z,9.38
2023-12-11T20:14:45.720Z,10.05
2023-12-11T20:19:47.950Z,7.40
2023-12-11T20:24:50.153Z,4.07
2023-12-11T20:29:52.517Z,3.75
2023-12-11T20:34:54.695Z,8.93
2023-12-11T20:39:56.863Z,3.92
2023-12-11T20:44:59.516Z,11.95
2023-12-11T20:50:01.902Z,4.10
2023-12-11T20:55:04.228Z,9.25
2023-12-11T21:00:11.495Z,7.18
2023-12-11T21:05:13.993Z,13.02
2023-12-11T21:10:16.356Z,14.23
2023-12-11T21:15:18.873Z,12.52
2023-12-11T21:20:21.096Z,15.32
2023-12-11T21:25:23.282Z,14.25
2023-12-11T21:30:26.433Z,12.23
2023-12-11T21:35:28.752Z,8.63
2023-12-11T21:40:30.872Z,8.18
2023-12-11T21:45:33.222Z,12.55
2023-12-11T21:50:38.059Z,12.82
2023-12-11T21:55:40.199Z,17.92
2023-12-11T22:00:42.409Z,15.15
2023-12-11T22:05:45.909Z,15.90
2023-12-11T22:10:48.215Z,16.30
2023-12-11T22:15:50.403Z,39.35
2023-12-11T22:20:52.507Z,34.17
2023-12-11T22:25:54.544Z,38.58
2023-12-11T22:30:56.678Z,40.63
2023-12-11T22:35:58.800Z,34.85
2023-12-11T22:41:01.164Z,11.50
2023-12-11T22:46:05.214Z,17.75
2023-12-11T22:51:07.513Z,10.63
2023-12-11T22:56:09.877Z,7.70
2023-12-11T23:01:12.046Z,15.68
2023-12-11T23:06:14.343Z,19.83
2023-12-11T23:11:16.610Z,12.90
2023-12-11T23:16:19.213Z,16.80
2023-12-11T23:21:21.331Z,9.38
2023-12-11T23:26:23.890Z,20.75
2023-12-11T23:31:26.053Z,17.58
2023-12-11T23:36:28.117Z,21.23
2023-12-11T23:41:30.188Z,18.55
2023-12-11T23:46:32.421Z,19.98
2023-12-11T23:51:34.557Z,23.10
2023-12-11T23:56:36.668Z,15.13
